Time;durP1;ratioP1;P1;durP2;ratioP2;P2;SDS_P1;SDS_P2;PMS_P1;PMS_P2;Temp;Humidity;BMP_temperature;BMP_pressure;BME280_temperature;BME280_humidity;BME280_pressure;Samples;Min_cycle;Max_cycle;Signal;HPM_P1;HPM_P2
2022/09/11 00:03:53;;;;;;;22.70;12.80;;;;;;;14.61;100.00;99984.45;655916;1281;139640;-89
2022/09/11 00:19:00;;;;;;;23.00;13.00;;;;;;;14.56;100.00;99978.31;656303;1282;139111;-92
2022/09/11 00:34:03;;;;;;;26.00;12.60;;;;;;;14.51;100.00;99970.02;655025;1282;139925;-90
2022/09/11 00:49:17;;;;;;;22.40;12.00;;;;;;;14.44;100.00;99952.79;658603;1277;139795;-91
2022/09/11 01:04:22;;;;;;;22.80;11.80;;;;;;;14.43;100.00;99950.66;659306;1277;139701;-90
2022/09/11 01:19:59;;;;;;;18.70;10.20;;;;;;;14.44;100.00;99938.88;659032;1278;140950;-89
2022/09/11 01:35:11;;;;;;;17.90;10.40;;;;;;;14.42;100.00;99934.27;657088;1278;139447;-89
2022/09/11 01:50:19;;;;;;;18.30;10.00;;;;;;;14.37;100.00;99925.61;657239;1277;139005;-89
2022/09/11 02:05:29;;;;;;;22.90;12.10;;;;;;;14.33;100.00;99915.29;657921;1278;139146;-90
2022/09/11 02:20:35;;;;;;;17.00;10.90;;;;;;;14.33;100.00;99914.23;657861;1278;139244;-90
2022/09/11 02:35:48;;;;;;;19.90;11.40;;;;;;;14.31;100.00;99914.08;656626;1277;139653;-90
2022/09/11 02:51:01;;;;;;;20.40;12.40;;;;;;;14.27;100.00;99909.88;657532;1277;139127;-88
2022/09/11 03:06:09;;;;;;;18.50;11.60;;;;;;;14.17;100.00;99899.47;658057;1278;139454;-89
2022/09/11 03:21:15;;;;;;;17.20;10.70;;;;;;;14.11;100.00;99899.58;657289;1277;139069;-88
2022/09/11 03:36:19;;;;;;;20.20;11.00;;;;;;;14.05;100.00;99908.45;658517;1277;139159;-89
2022/09/11 03:51:22;;;;;;;14.70;8.70;;;;;;;13.85;100.00;99918.20;657094;1277;139130;-90
2022/09/11 04:06:26;;;;;;;19.80;10.80;;;;;;;13.77;100.00;99916.61;658125;1277;142409;-89
2022/09/11 04:21:30;;;;;;;20.80;12.30;;;;;;;13.72;100.00;99914.87;658166;1277;138942;-86
2022/09/11 04:36:34;;;;;;;21.50;12.80;;;;;;;13.64;100.00;99913.06;658731;1277;1379168;-88
2022/09/11 04:51:39;;;;;;;21.00;12.80;;;;;;;13.63;100.00;99911.44;659230;1279;139139;-88
2022/09/11 05:06:47;;;;;;;25.10;13.30;;;;;;;13.63;100.00;99916.85;657911;1277;139027;-88
2022/09/11 05:21:51;;;;;;;19.90;11.80;;;;;;;13.68;100.00;99915.65;658454;1277;139898;-88
2022/09/11 05:36:58;;;;;;;21.80;12.40;;;;;;;13.75;100.00;99912.14;658102;1277;138983;-91
2022/09/11 05:52:04;;;;;;;26.80;16.10;;;;;;;13.85;100.00;99908.73;656078;1278;139223;-89
2022/09/11 06:07:08;;;;;;;17.80;10.50;;;;;;;14.04;100.00;99905.61;655854;1277;139457;-88
2022/09/11 06:22:13;;;;;;;17.80;10.40;;;;;;;14.12;100.00;99922.48;657034;1277;140698;-88
2022/09/11 06:37:19;;;;;;;26.40;12.60;;;;;;;14.29;100.00;99919.23;656593;1277;141595;-90
2022/09/11 06:52:23;;;;;;;20.50;10.00;;;;;;;14.51;100.00;99919.48;659802;1277;139568;-90
2022/09/11 07:07:38;;;;;;;17.10;9.90;;;;;;;14.87;100.00;99928.03;663566;1277;139681;-90
2022/09/11 07:22:44;;;;;;;19.00;11.10;;;;;;;15.07;100.00;99927.30;670172;1277;139176;-87
2022/09/11 07:37:48;;;;;;;19.10;8.60;;;;;;;15.27;100.00;99922.18;664909;1277;139315;-89
2022/09/11 07:52:54;;;;;;;13.40;6.80;;;;;;;15.43;100.00;99913.98;658087;1277;138978;-89
2022/09/11 08:07:57;;;;;;;15.10;6.10;;;;;;;15.80;100.00;99914.23;659310;1277;139989;-88
2022/09/11 08:23:01;;;;;;;10.10;5.20;;;;;;;17.03;100.00;99900.98;671254;1277;139407;-87
2022/09/11 08:38:05;;;;;;;11.50;5.00;;;;;;;18.49;100.00;99896.23;671157;1277;139273;-88
2022/09/11 08:53:17;;;;;;;10.90;4.90;;;;;;;18.44;98.90;99894.66;669633;1277;139607;-86
2022/09/11 09:08:48;;;;;;;12.80;4.70;;;;;;;18.34;92.70;99892.56;671484;1277;138659;-87
2022/09/11 09:23:54;;;;;;;6.10;3.40;;;;;;;18.33;88.48;99890.27;671410;1277;139289;-87
2022/09/11 09:38:59;;;;;;;6.10;3.40;;;;;;;18.67;84.50;99881.34;661327;1277;138574;-86
2022/09/11 09:54:04;;;;;;;7.60;2.80;;;;;;;19.12;78.57;99888.04;659771;1277;139147;-86
2022/09/11 10:09:25;;;;;;;3.20;2.10;;;;;;;21.02;75.18;99872.95;659896;1277;138861;-86
2022/09/11 10:24:29;;;;;;;5.00;2.70;;;;;;;21.67;67.95;99869.94;659957;1277;138073;-85
2022/09/11 10:39:35;;;;;;;2.70;1.90;;;;;;;21.16;64.48;99872.66;659830;1277;137866;-87
2022/09/11 10:55:02;;;;;;;4.50;2.50;;;;;;;21.71;64.22;99863.70;661886;1277;138797;-85
2022/09/11 11:10:16;;;;;;;2.20;1.70;;;;;;;21.63;63.49;99866.10;660947;1277;138596;-87
2022/09/11 11:25:29;;;;;;;7.10;1.80;;;;;;;21.99;59.90;99865.21;660002;1277;138317;-88
2022/09/11 11:40:40;;;;;;;5.00;2.20;;;;;;;23.34;59.03;99857.00;658819;1277;138428;-88
2022/09/11 11:56:14;;;;;;;4.10;2.10;;;;;;;22.97;52.96;99861.27;659392;1277;137920;-88
2022/09/11 12:11:27;;;;;;;4.30;2.20;;;;;;;22.54;51.60;99871.34;657952;1277;138267;-86
2022/09/11 12:26:31;;;;;;;3.50;1.50;;;;;;;22.53;51.15;99882.39;656545;1277;137839;-88
2022/09/11 12:41:34;;;;;;;3.20;1.70;;;;;;;22.72;49.97;99889.55;656687;1277;138034;-87
2022/09/11 12:57:11;;;;;;;5.30;2.40;;;;;;;22.79;48.71;99900.48;655462;1277;139338;-88
2022/09/11 13:12:24;;;;;;;2.40;1.80;;;;;;;22.96;50.21;99908.11;655717;1277;138390;-88
2022/09/11 13:27:36;;;;;;;5.70;2.10;;;;;;;22.57;49.64;99912.41;657762;1277;137905;-87
2022/09/11 13:42:40;;;;;;;5.60;2.10;;;;;;;21.84;51.50;99917.92;657394;1276;138161;-87
2022/09/11 13:58:01;;;;;;;5.30;2.40;;;;;;;22.14;52.67;99922.20;655970;1277;137937;-88
2022/09/11 14:13:16;;;;;;;5.80;1.90;;;;;;;24.35;50.66;99926.92;660439;1277;138420;-87
2022/09/11 14:28:41;;;;;;;4.50;2.40;;;;;;;23.75;50.62;99933.93;661945;1277;138692;-90
2022/09/11 14:43:53;;;;;;;3.70;1.80;;;;;;;24.29;50.41;99938.95;662152;1277;137946;-87
2022/09/11 14:59:04;;;;;;;2.80;1.40;;;;;;;32.61;44.36;99938.08;661475;1277;137741;-85
2022/09/11 15:14:10;;;;;;;5.10;2.00;;;;;;;35.10;38.24;99945.25;659548;1277;138480;-86
2022/09/11 15:29:31;;;;;;;3.40;1.60;;;;;;;28.03;41.33;99939.52;661276;1275;138390;-86
2022/09/11 15:44:35;;;;;;;5.80;4.80;;;;;;;24.83;45.52;99949.09;661016;1277;138075;-85
2022/09/11 15:59:38;;;;;;;4.90;2.20;;;;;;;22.77;48.90;99957.27;660582;1277;138546;-86
2022/09/11 16:14:42;;;;;;;6.10;3.10;;;;;;;25.85;46.44;99964.63;660200;1277;140188;-87
2022/09/11 16:29:47;;;;;;;6.90;3.90;;;;;;;23.13;47.60;99966.00;660239;1277;138262;-89
2022/09/11 16:45:12;;;;;;;7.10;3.50;;;;;;;19.45;53.64;99971.78;659374;1277;1622209;-89
2022/09/11 17:00:16;;;;;;;29.00;19.10;;;;;;;18.11;57.44;99981.41;660464;1277;138729;-88
2022/09/11 17:15:21;;;;;;;27.80;16.00;;;;;;;17.14;60.45;99981.78;660234;1277;138285;-89
2022/09/11 17:30:26;;;;;;;19.40;7.40;;;;;;;16.47;63.95;99995.35;660786;1278;138235;-88
2022/09/11 17:45:30;;;;;;;21.80;6.20;;;;;;;16.06;66.49;99997.80;660570;1278;138043;-86
2022/09/11 18:00:34;;;;;;;30.60;14.00;;;;;;;15.79;68.72;100005.98;661019;1277;138837;-88
2022/09/11 18:15:39;;;;;;;17.10;7.60;;;;;;;15.45;71.29;100009.25;660741;1277;139482;-88
2022/09/11 18:30:43;;;;;;;9.90;6.30;;;;;;;15.17;73.62;100013.63;660214;1277;138327;-88
2022/09/11 18:45:46;;;;;;;12.80;6.70;;;;;;;14.95;75.70;100015.27;660786;1277;138864;-87
2022/09/11 19:00:51;;;;;;;13.60;6.80;;;;;;;14.72;77.98;100020.33;662258;1277;139667;-87
2022/09/11 19:15:56;;;;;;;11.70;5.10;;;;;;;14.50;81.09;100019.04;660178;1278;139025;-89
2022/09/11 19:31:01;;;;;;;8.00;4.10;;;;;;;14.38;82.53;100017.85;661037;1277;141193;-90
2022/09/11 19:46:05;;;;;;;7.30;4.00;;;;;;;14.27;85.29;100018.86;663421;1277;139173;-89
2022/09/11 20:01:11;;;;;;;4.60;3.00;;;;;;;14.16;86.22;100023.02;657653;1278;139506;-88
2022/09/11 20:16:18;;;;;;;7.40;3.30;;;;;;;14.02;87.88;100025.41;656876;1278;139905;-89
2022/09/11 20:31:28;;;;;;;10.60;4.30;;;;;;;13.90;89.78;100028.08;657565;1279;140227;-89
2022/09/11 20:46:32;;;;;;;4.10;3.20;;;;;;;13.75;91.60;100033.33;658160;1277;140024;-87
2022/09/11 21:01:36;;;;;;;7.60;3.90;;;;;;;13.57;92.73;100035.79;662153;1277;138992;-88
2022/09/11 21:16:39;;;;;;;11.90;4.00;;;;;;;13.38;93.71;100041.55;661068;1277;139476;-88
2022/09/11 21:31:43;;;;;;;7.80;3.60;;;;;;;13.20;94.51;100036.27;657383;1278;139498;-88
2022/09/11 21:46:46;;;;;;;5.50;3.20;;;;;;;12.96;96.45;100036.58;657142;1277;139420;-88
2022/09/11 22:01:49;;;;;;;6.40;4.00;;;;;;;12.89;97.89;100044.97;657947;1278;140049;-89
2022/09/11 22:16:52;;;;;;;7.50;4.10;;;;;;;12.72;99.46;100057.90;658268;1277;139128;-88
2022/09/11 22:31:55;;;;;;;15.30;7.00;;;;;;;12.78;99.97;100062.21;657783;1278;139637;-86
2022/09/11 22:46:59;;;;;;;8.90;5.00;;;;;;;12.65;99.98;100062.46;658378;1277;139067;-86
2022/09/11 23:02:02;;;;;;;10.30;5.50;;;;;;;12.46;99.91;100061.52;657227;1280;139592;-87
2022/09/11 23:17:05;;;;;;;8.10;3.90;;;;;;;12.09;99.84;100073.77;657925;1277;139296;-87
2022/09/11 23:32:08;;;;;;;6.40;3.40;;;;;;;11.74;100.00;100067.42;658282;1277;139498;-87
2022/09/11 23:47:12;;;;;;;15.30;6.70;;;;;;;11.62;100.00;100067.05;657874;1281;139329;-89
